createdAt,value
2022-08-20T13:35:40.837Z,5.18
2022-08-20T13:38:07.727Z,5.70
2022-08-20T13:40:34.791Z,5.20
2022-08-20T13:43:06.562Z,5.93
2022-08-20T13:45:34.045Z,6.55
2022-08-20T13:48:00.882Z,5.70
2022-08-20T13:50:28.082Z,5.47
2022-08-20T13:52:56.236Z,7.38
2022-08-20T13:55:25.860Z,6.40
2022-08-20T14:00:30.940Z,5.93
2022-08-20T14:03:03.833Z,5.43
2022-08-20T14:05:31.593Z,5.35
2022-08-20T14:08:07.479Z,6.10
2022-08-20T14:10:34.820Z,6.75
2022-08-20T14:13:03.367Z,6.18
2022-08-20T14:15:31.280Z,5.73
2022-08-20T14:17:58.749Z,5.78
2022-08-20T14:20:31.966Z,6.25
2022-08-20T14:23:00.837Z,5.95
2022-08-20T14:25:29.018Z,6.43
2022-08-20T14:27:56.232Z,6.65
2022-08-20T14:30:29.455Z,6.80
2022-08-20T14:32:56.880Z,6.65
2022-08-20T14:35:23.805Z,7.20
2022-08-20T14:37:53.802Z,7.18
2022-08-20T14:40:22.814Z,6.82
2022-08-20T14:42:51.508Z,7.57
2022-08-20T14:45:20.052Z,7.28
2022-08-20T14:47:54.012Z,6.75
2022-08-20T14:50:23.666Z,7.30
2022-08-20T14:55:21.190Z,7.70
2022-08-20T14:57:48.675Z,8.15
2022-08-20T15:00:19.401Z,7.28
2022-08-20T15:02:47.031Z,8.05
2022-08-20T15:05:15.155Z,7.70
2022-08-20T15:07:44.991Z,7.47
2022-08-20T15:10:22.053Z,7.38
2022-08-20T15:12:48.919Z,7.63
2022-08-20T15:15:17.384Z,7.13
2022-08-20T15:17:50.577Z,6.60
2022-08-20T15:20:21.431Z,7.05
2022-08-20T15:22:49.115Z,6.95
2022-08-20T15:25:19.057Z,6.65
2022-08-20T15:27:46.452Z,6.85
2022-08-20T15:30:17.171Z,7.47
2022-08-20T15:32:44.055Z,6.95
2022-08-20T15:35:13.227Z,7.00
2022-08-20T15:37:42.384Z,7.55
2022-08-20T15:40:10.244Z,7.53
2022-08-20T15:42:37.583Z,6.90
2022-08-20T15:45:06.376Z,7.07
2022-08-20T15:47:53.956Z,7.18
2022-08-20T15:51:00.882Z,7.50
2022-08-20T15:53:33.289Z,7.20
2022-08-20T15:56:13.704Z,7.30
2022-08-20T15:58:55.110Z,7.45
2022-08-20T16:02:04.886Z,6.95
2022-08-20T16:05:00.559Z,7.13
2022-08-20T16:07:42.202Z,7.03
2022-08-20T16:10:16.171Z,6.28
2022-08-20T16:12:48.420Z,7.28
2022-08-20T16:15:22.712Z,7.70
2022-08-20T16:17:58.921Z,6.95
2022-08-20T16:20:43.053Z,7.05
2022-08-20T16:23:21.283Z,6.57
2022-08-20T16:26:12.404Z,6.97
2022-08-20T16:29:02.215Z,6.30
2022-08-20T16:31:34.385Z,6.85
2022-08-20T16:34:33.252Z,7.57
2022-08-20T16:37:33.367Z,6.68
2022-08-20T16:40:17.247Z,6.75
2022-08-20T16:42:47.737Z,6.60
2022-08-20T16:45:29.259Z,6.80
2022-08-20T16:48:01.214Z,8.25
2022-08-20T16:50:39.741Z,7.50
2022-08-20T16:53:20.785Z,8.40
2022-08-20T16:55:47.972Z,8.05
2022-08-20T16:58:15.207Z,13.73
2022-08-20T17:00:44.962Z,9.68
2022-08-20T17:03:33.555Z,15.32
2022-08-20T17:06:32.590Z,11.15
2022-08-20T17:09:08.648Z,7.95
2022-08-20T17:11:37.272Z,7.47
2022-08-20T17:14:03.975Z,7.15
2022-08-20T17:16:52.463Z,7.90
2022-08-20T17:19:25.161Z,7.40
2022-08-20T17:21:52.011Z,7.07
2022-08-20T17:24:26.531Z,7.93
2022-08-20T17:27:02.854Z,7.10
2022-08-20T17:29:33.085Z,7.60
2022-08-20T17:32:16.868Z,8.15
2022-08-20T17:34:50.446Z,7.82
2022-08-20T17:37:28.338Z,7.97
2022-08-20T17:40:15.775Z,8.88
2022-08-20T17:42:58.489Z,7.80
2022-08-20T17:45:47.423Z,8.70
2022-08-20T17:48:20.231Z,9.40
2022-08-20T17:50:47.500Z,10.50
2022-08-20T17:53:26.103Z,10.77
2022-08-20T17:55:58.582Z,11.53
2022-08-20T17:58:54.308Z,10.55
2022-08-20T18:01:22.988Z,11.57
2022-08-20T18:03:52.219Z,11.27
2022-08-20T18:06:42.208Z,10.98
2022-08-20T18:09:17.145Z,11.55
2022-08-20T18:12:35.029Z,10.60
2022-08-20T18:15:01.720Z,12.95
2022-08-20T18:17:59.295Z,11.70
2022-08-20T18:20:55.232Z,11.75
2022-08-20T18:23:28.845Z,13.00
2022-08-20T18:26:13.662Z,11.95
2022-08-20T18:28:46.100Z,12.30
2022-08-20T18:31:40.430Z,12.95
2022-08-20T18:34:16.282Z,13.30
2022-08-20T18:37:14.322Z,12.93
2022-08-20T18:39:45.616Z,12.43
2022-08-20T18:42:27.691Z,16.17
2022-08-20T18:44:56.049Z,15.73
2022-08-20T18:47:29.297Z,19.23
2022-08-20T18:50:16.101Z,18.75
2022-08-20T18:53:11.297Z,18.52
2022-08-20T18:55:41.848Z,17.45
2022-08-20T18:58:14.697Z,17.67
2022-08-20T19:00:48.172Z,14.40
2022-08-20T19:03:36.663Z,14.23
2022-08-20T19:06:15.709Z,15.90
2022-08-20T19:08:48.980Z,18.23
2022-08-20T19:11:50.987Z,17.15
2022-08-20T19:14:22.327Z,15.80
2022-08-20T19:16:53.198Z,14.07
2022-08-20T19:19:23.240Z,12.38
2022-08-20T19:21:51.906Z,12.25
2022-08-20T19:24:28.464Z,11.43
2022-08-20T19:26:58.780Z,12.07
2022-08-20T19:29:39.685Z,12.27
2022-08-20T19:32:09.076Z,12.52
2022-08-20T19:34:36.584Z,11.75
2022-08-20T19:37:34.873Z,13.55
2022-08-20T19:39:57.979Z,13.05
2022-08-20T19:42:40.628Z,20.05
2022-08-20T19:45:15.187Z,20.58
2022-08-20T19:47:53.227Z,18.85
2022-08-20T19:50:50.043Z,14.55
2022-08-20T19:53:37.294Z,13.45
2022-08-20T19:56:16.526Z,12.48
2022-08-20T19:58:44.163Z,12.52
2022-08-20T20:01:18.160Z,12.40
2022-08-20T20:03:56.561Z,12.20
2022-08-20T20:06:25.689Z,13.20
2022-08-20T20:08:59.599Z,12.82
2022-08-20T20:11:47.584Z,12.88
2022-08-20T20:14:15.851Z,12.73
2022-08-20T20:16:42.775Z,13.15
2022-08-20T20:19:27.812Z,11.73
2022-08-20T20:22:19.626Z,12.85
2022-08-20T20:24:58.737Z,12.65
2022-08-20T20:27:27.424Z,12.98
2022-08-20T20:30:02.934Z,12.77
2022-08-20T20:32:33.630Z,13.75
2022-08-20T20:35:05.154Z,13.57
2022-08-20T20:37:49.021Z,13.13
2022-08-20T20:40:25.417Z,12.88
2022-08-20T20:43:07.815Z,11.65
2022-08-20T20:45:45.063Z,11.55
2022-08-20T20:48:21.305Z,11.95
2022-08-20T20:50:51.018Z,11.18
2022-08-20T20:53:53.361Z,11.98
2022-08-20T20:56:29.789Z,11.85
2022-08-20T20:58:58.604Z,13.02
2022-08-20T21:01:45.762Z,12.45
2022-08-20T21:04:13.807Z,12.60
2022-08-20T21:06:40.666Z,14.15
2022-08-20T21:09:08.437Z,25.33
2022-08-20T21:11:35.185Z,28.73
2022-08-20T21:14:02.019Z,24.73
2022-08-20T21:16:29.960Z,22.55
2022-08-20T21:18:58.439Z,16.70
2022-08-20T21:21:25.291Z,15.00
2022-08-20T21:23:52.055Z,15.88
2022-08-20T21:26:18.988Z,14.93
2022-08-20T21:28:45.757Z,17.10
2022-08-20T21:31:12.579Z,15.98
2022-08-20T21:33:39.502Z,13.90
2022-08-20T21:36:06.542Z,16.52
2022-08-20T21:38:33.409Z,16.67
2022-08-20T21:41:00.188Z,15.75
2022-08-20T21:43:27.275Z,15.98
2022-08-20T21:46:01.463Z,16.58
2022-08-20T21:50:55.777Z,15.35
2022-08-20T21:53:23.150Z,16.48
2022-08-20T21:55:50.022Z,16.80
2022-08-20T21:58:17.984Z,17.58
2022-08-20T22:00:53.528Z,17.70
2022-08-20T22:03:23.200Z,17.00
2022-08-20T22:05:51.025Z,18.25
2022-08-20T22:08:18.625Z,17.05
2022-08-20T22:10:45.675Z,18.52
2022-08-20T22:13:13.678Z,17.40
2022-08-20T22:15:40.658Z,17.38
2022-08-20T22:18:08.375Z,18.67
2022-08-20T22:20:35.348Z,18.52
2022-08-20T22:23:06.493Z,17.58
2022-08-20T22:25:34.197Z,16.15
2022-08-20T22:28:01.420Z,16.33
2022-08-20T22:30:29.920Z,16.33
2022-08-20T22:33:02.440Z,15.38
2022-08-20T22:35:31.130Z,16.40
2022-08-20T22:37:58.467Z,15.60
2022-08-20T22:40:25.390Z,15.75
2022-08-20T22:42:52.244Z,16.08
2022-08-20T22:45:19.756Z,17.17
2022-08-20T22:47:46.980Z,15.50
2022-08-20T22:50:15.247Z,17.00
2022-08-20T22:52:43.511Z,17.15
2022-08-20T22:55:10.522Z,16.30
2022-08-20T22:57:38.748Z,17.08
2022-08-20T23:00:10.330Z,15.68
2022-08-20T23:02:38.009Z,15.68
2022-08-20T23:05:05.472Z,16.25
2022-08-20T23:07:32.401Z,15.60
2022-08-20T23:09:59.149Z,20.65
2022-08-20T23:12:25.909Z,20.50
2022-08-20T23:14:52.781Z,20.88
2022-08-20T23:17:20.096Z,19.83
2022-08-20T23:19:48.741Z,18.95
2022-08-20T23:22:16.285Z,19.98
2022-08-20T23:24:43.401Z,19.13
2022-08-20T23:27:14.372Z,16.58
2022-08-20T23:29:41.261Z,17.70
2022-08-20T23:32:08.073Z,18.98
2022-08-20T23:34:35.171Z,18.33
2022-08-20T23:37:02.648Z,19.05
2022-08-20T23:39:29.551Z,20.30
2022-08-20T23:41:56.313Z,21.38
2022-08-20T23:44:25.793Z,20.60
2022-08-20T23:46:58.557Z,21.50
2022-08-20T23:49:27.246Z,21.45
2022-08-20T23:51:54.090Z,20.73
2022-08-20T23:54:20.988Z,20.77
2022-08-20T23:56:47.829Z,22.30
2022-08-20T23:59:14.579Z,22.05
